You are not logged in, Click here to log in
成田国際空港NRT / RJAA 日本千葉縣成田市
ICAO: RJAA Country: 日本千葉縣成田市
Latitude: 35.772 Longitude: 140.393
Total Arrivals: 170 Total Departures: 161
Latest Arrival: MM319 (RJBB-RJAA)Arthur. Kung Latest Departure: EH3235 (RJAA-RJSS)Arthur. Kung
Scenery:
METAR : RJAA 071300Z 12003KT 9999 FEW030 BKN/// 25/24 Q1008 NOSIG RMK 1CU030 A2977

成田国際空港NRT